sensor_id;sensor_type;location;lat;lon;timestamp;P1;durP1;ratioP1;P2;durP2;ratioP2
33802;SDS011;20110;53.120;5.786;2022-08-19T00:01:52;20.27;;;11.25;;
33802;SDS011;20110;53.120;5.786;2022-08-19T00:04:22;20.67;;;11.80;;
33802;SDS011;20110;53.120;5.786;2022-08-19T00:06:53;15.98;;;10.32;;
33802;SDS011;20110;53.120;5.786;2022-08-19T00:09:19;19.73;;;11.60;;
33802;SDS011;20110;53.120;5.786;2022-08-19T00:11:47;14.93;;;10.45;;
33802;SDS011;20110;53.120;5.786;2022-08-19T00:14:14;18.67;;;10.93;;
33802;SDS011;20110;53.120;5.786;2022-08-19T00:16:42;22.02;;;11.52;;
33802;SDS011;20110;53.120;5.786;2022-08-19T00:19:12;24.90;;;11.73;;
33802;SDS011;20110;53.120;5.786;2022-08-19T00:21:39;16.58;;;10.30;;
33802;SDS011;20110;53.120;5.786;2022-08-19T00:24:08;18.75;;;11.35;;
33802;SDS011;20110;53.120;5.786;2022-08-19T00:26:37;19.17;;;11.45;;
33802;SDS011;20110;53.120;5.786;2022-08-19T00:29:04;18.92;;;11.55;;
33802;SDS011;20110;53.120;5.786;2022-08-19T00:31:31;21.33;;;11.13;;
33802;SDS011;20110;53.120;5.786;2022-08-19T00:33:57;19.98;;;11.77;;
33802;SDS011;20110;53.120;5.786;2022-08-19T00:36:24;23.13;;;11.63;;
33802;SDS011;20110;53.120;5.786;2022-08-19T00:38:50;24.27;;;11.77;;
33802;SDS011;20110;53.120;5.786;2022-08-19T00:41:17;18.60;;;11.43;;
33802;SDS011;20110;53.120;5.786;2022-08-19T00:46:36;21.48;;;11.70;;
33802;SDS011;20110;53.120;5.786;2022-08-19T00:49:16;19.02;;;11.57;;
33802;SDS011;20110;53.120;5.786;2022-08-19T00:52:11;29.48;;;12.40;;
33802;SDS011;20110;53.120;5.786;2022-08-19T00:54:41;23.05;;;11.55;;
33802;SDS011;20110;53.120;5.786;2022-08-19T00:57:10;20.00;;;12.30;;
33802;SDS011;20110;53.120;5.786;2022-08-19T00:59:42;28.50;;;13.10;;
33802;SDS011;20110;53.120;5.786;2022-08-19T01:02:12;26.02;;;12.93;;
33802;SDS011;20110;53.120;5.786;2022-08-19T01:04:41;21.75;;;13.18;;
33802;SDS011;20110;53.120;5.786;2022-08-19T01:07:06;29.35;;;13.68;;
33802;SDS011;20110;53.120;5.786;2022-08-19T01:09:33;21.65;;;13.55;;
33802;SDS011;20110;53.120;5.786;2022-08-19T01:11:59;20.77;;;12.68;;
33802;SDS011;20110;53.120;5.786;2022-08-19T01:14:25;17.02;;;11.60;;
33802;SDS011;20110;53.120;5.786;2022-08-19T01:16:51;21.92;;;11.63;;
33802;SDS011;20110;53.120;5.786;2022-08-19T01:19:23;20.23;;;10.52;;
33802;SDS011;20110;53.120;5.786;2022-08-19T01:21:58;21.13;;;9.95;;
33802;SDS011;20110;53.120;5.786;2022-08-19T01:24:33;19.95;;;10.48;;
33802;SDS011;20110;53.120;5.786;2022-08-19T01:26:59;28.02;;;12.20;;
33802;SDS011;20110;53.120;5.786;2022-08-19T01:29:29;30.10;;;13.90;;
33802;SDS011;20110;53.120;5.786;2022-08-19T01:31:55;29.33;;;16.30;;
33802;SDS011;20110;53.120;5.786;2022-08-19T01:34:22;29.75;;;16.02;;
33802;SDS011;20110;53.120;5.786;2022-08-19T01:36:48;32.85;;;15.95;;
33802;SDS011;20110;53.120;5.786;2022-08-19T01:39:24;28.85;;;15.85;;
33802;SDS011;20110;53.120;5.786;2022-08-19T01:41:50;30.13;;;15.65;;
33802;SDS011;20110;53.120;5.786;2022-08-19T01:44:19;40.70;;;17.50;;
33802;SDS011;20110;53.120;5.786;2022-08-19T01:46:49;38.20;;;16.05;;
33802;SDS011;20110;53.120;5.786;2022-08-19T01:49:17;31.63;;;16.20;;
33802;SDS011;20110;53.120;5.786;2022-08-19T01:51:46;33.92;;;16.02;;
33802;SDS011;20110;53.120;5.786;2022-08-19T01:54:14;32.80;;;16.13;;
33802;SDS011;20110;53.120;5.786;2022-08-19T01:56:42;31.80;;;16.10;;
33802;SDS011;20110;53.120;5.786;2022-08-19T01:59:10;40.90;;;17.45;;
33802;SDS011;20110;53.120;5.786;2022-08-19T02:01:40;32.78;;;16.40;;
33802;SDS011;20110;53.120;5.786;2022-08-19T02:04:07;42.60;;;17.15;;
33802;SDS011;20110;53.120;5.786;2022-08-19T02:06:33;40.17;;;17.23;;
33802;SDS011;20110;53.120;5.786;2022-08-19T02:08:59;45.75;;;18.13;;
33802;SDS011;20110;53.120;5.786;2022-08-19T02:11:28;41.60;;;16.75;;
33802;SDS011;20110;53.120;5.786;2022-08-19T02:14:01;40.25;;;17.00;;
33802;SDS011;20110;53.120;5.786;2022-08-19T02:16:30;42.63;;;19.55;;
33802;SDS011;20110;53.120;5.786;2022-08-19T02:18:58;40.65;;;17.38;;
33802;SDS011;20110;53.120;5.786;2022-08-19T02:21:27;43.55;;;17.40;;
33802;SDS011;20110;53.120;5.786;2022-08-19T02:23:54;40.85;;;17.85;;
33802;SDS011;20110;53.120;5.786;2022-08-19T02:26:21;32.40;;;15.13;;
33802;SDS011;20110;53.120;5.786;2022-08-19T02:28:48;37.03;;;15.40;;
33802;SDS011;20110;53.120;5.786;2022-08-19T02:31:15;31.55;;;15.00;;
33802;SDS011;20110;53.120;5.786;2022-08-19T02:33:44;35.17;;;14.98;;
33802;SDS011;20110;53.120;5.786;2022-08-19T02:36:12;39.03;;;17.23;;
33802;SDS011;20110;53.120;5.786;2022-08-19T02:38:40;39.47;;;16.60;;
33802;SDS011;20110;53.120;5.786;2022-08-19T02:41:11;37.45;;;17.30;;
33802;SDS011;20110;53.120;5.786;2022-08-19T02:43:43;38.38;;;15.50;;
33802;SDS011;20110;53.120;5.786;2022-08-19T02:46:16;38.58;;;15.85;;
33802;SDS011;20110;53.120;5.786;2022-08-19T02:48:46;36.40;;;16.60;;
33802;SDS011;20110;53.120;5.786;2022-08-19T02:51:18;36.08;;;15.55;;
33802;SDS011;20110;53.120;5.786;2022-08-19T02:53:47;37.35;;;17.20;;
33802;SDS011;20110;53.120;5.786;2022-08-19T02:56:13;33.95;;;15.60;;
33802;SDS011;20110;53.120;5.786;2022-08-19T02:58:40;35.85;;;16.20;;
33802;SDS011;20110;53.120;5.786;2022-08-19T03:01:07;30.20;;;14.90;;
33802;SDS011;20110;53.120;5.786;2022-08-19T03:03:35;30.15;;;15.23;;
33802;SDS011;20110;53.120;5.786;2022-08-19T03:06:13;33.20;;;16.52;;
33802;SDS011;20110;53.120;5.786;2022-08-19T03:08:41;37.30;;;16.33;;
33802;SDS011;20110;53.120;5.786;2022-08-19T03:11:44;31.85;;;15.07;;
33802;SDS011;20110;53.120;5.786;2022-08-19T03:14:04;36.22;;;14.20;;
33802;SDS011;20110;53.120;5.786;2022-08-19T03:16:35;27.45;;;13.32;;
33802;SDS011;20110;53.120;5.786;2022-08-19T03:19:14;30.52;;;13.30;;
33802;SDS011;20110;53.120;5.786;2022-08-19T03:21:44;29.23;;;14.82;;
33802;SDS011;20110;53.120;5.786;2022-08-19T03:24:11;34.22;;;14.23;;
33802;SDS011;20110;53.120;5.786;2022-08-19T03:26:40;30.58;;;14.32;;
33802;SDS011;20110;53.120;5.786;2022-08-19T03:29:14;34.47;;;14.32;;
33802;SDS011;20110;53.120;5.786;2022-08-19T03:31:41;26.52;;;14.35;;
33802;SDS011;20110;53.120;5.786;2022-08-19T03:34:13;30.40;;;14.50;;
33802;SDS011;20110;53.120;5.786;2022-08-19T03:37:03;32.55;;;14.05;;
33802;SDS011;20110;53.120;5.786;2022-08-19T03:39:32;32.97;;;16.08;;
33802;SDS011;20110;53.120;5.786;2022-08-19T03:42:00;36.85;;;16.92;;
33802;SDS011;20110;53.120;5.786;2022-08-19T03:44:27;34.95;;;17.75;;
33802;SDS011;20110;53.120;5.786;2022-08-19T03:46:56;36.40;;;16.48;;
33802;SDS011;20110;53.120;5.786;2022-08-19T03:49:25;38.10;;;16.38;;
33802;SDS011;20110;53.120;5.786;2022-08-19T03:51:55;39.05;;;16.95;;
33802;SDS011;20110;53.120;5.786;2022-08-19T03:54:25;32.13;;;15.60;;
33802;SDS011;20110;53.120;5.786;2022-08-19T03:56:53;35.03;;;16.63;;
33802;SDS011;20110;53.120;5.786;2022-08-19T03:59:22;36.50;;;16.17;;
33802;SDS011;20110;53.120;5.786;2022-08-19T04:01:59;38.25;;;15.98;;
33802;SDS011;20110;53.120;5.786;2022-08-19T04:04:30;38.97;;;17.92;;
33802;SDS011;20110;53.120;5.786;2022-08-19T04:06:56;38.13;;;16.48;;
33802;SDS011;20110;53.120;5.786;2022-08-19T04:09:22;36.33;;;16.83;;
33802;SDS011;20110;53.120;5.786;2022-08-19T04:11:49;38.97;;;16.52;;
33802;SDS011;20110;53.120;5.786;2022-08-19T04:14:21;41.08;;;16.63;;
33802;SDS011;20110;53.120;5.786;2022-08-19T04:16:50;41.20;;;17.50;;
33802;SDS011;20110;53.120;5.786;2022-08-19T04:19:17;40.53;;;17.13;;
33802;SDS011;20110;53.120;5.786;2022-08-19T04:21:46;44.80;;;18.35;;
33802;SDS011;20110;53.120;5.786;2022-08-19T04:24:15;43.45;;;17.30;;
33802;SDS011;20110;53.120;5.786;2022-08-19T04:26:42;49.83;;;19.90;;
33802;SDS011;20110;53.120;5.786;2022-08-19T04:29:11;52.83;;;19.38;;
33802;SDS011;20110;53.120;5.786;2022-08-19T04:31:43;51.47;;;18.58;;
33802;SDS011;20110;53.120;5.786;2022-08-19T04:34:11;45.38;;;18.52;;
33802;SDS011;20110;53.120;5.786;2022-08-19T04:36:41;45.50;;;18.98;;
33802;SDS011;20110;53.120;5.786;2022-08-19T04:39:11;48.53;;;19.60;;
33802;SDS011;20110;53.120;5.786;2022-08-19T04:41:40;51.47;;;19.38;;
33802;SDS011;20110;53.120;5.786;2022-08-19T04:44:25;50.85;;;20.13;;
33802;SDS011;20110;53.120;5.786;2022-08-19T04:46:51;52.25;;;21.02;;
33802;SDS011;20110;53.120;5.786;2022-08-19T04:49:18;43.88;;;19.52;;
33802;SDS011;20110;53.120;5.786;2022-08-19T04:51:47;49.97;;;20.00;;
33802;SDS011;20110;53.120;5.786;2022-08-19T04:54:15;47.42;;;19.95;;
33802;SDS011;20110;53.120;5.786;2022-08-19T04:56:42;48.28;;;19.65;;
33802;SDS011;20110;53.120;5.786;2022-08-19T04:59:08;57.47;;;21.77;;
33802;SDS011;20110;53.120;5.786;2022-08-19T05:01:35;52.70;;;20.75;;
33802;SDS011;20110;53.120;5.786;2022-08-19T05:04:03;55.38;;;21.45;;
33802;SDS011;20110;53.120;5.786;2022-08-19T05:06:31;56.67;;;21.20;;
33802;SDS011;20110;53.120;5.786;2022-08-19T05:09:01;47.60;;;21.27;;
33802;SDS011;20110;53.120;5.786;2022-08-19T05:11:31;51.95;;;21.95;;
33802;SDS011;20110;53.120;5.786;2022-08-19T05:14:04;63.75;;;22.75;;
33802;SDS011;20110;53.120;5.786;2022-08-19T05:16:31;63.75;;;22.98;;
33802;SDS011;20110;53.120;5.786;2022-08-19T05:18:56;52.80;;;22.23;;
33802;SDS011;20110;53.120;5.786;2022-08-19T05:21:41;58.42;;;21.80;;
33802;SDS011;20110;53.120;5.786;2022-08-19T05:24:27;50.65;;;23.13;;
33802;SDS011;20110;53.120;5.786;2022-08-19T05:26:54;54.03;;;22.42;;
33802;SDS011;20110;53.120;5.786;2022-08-19T05:29:25;52.95;;;22.23;;
33802;SDS011;20110;53.120;5.786;2022-08-19T05:31:53;52.53;;;23.20;;
33802;SDS011;20110;53.120;5.786;2022-08-19T05:34:21;48.95;;;22.83;;
33802;SDS011;20110;53.120;5.786;2022-08-19T05:36:56;47.92;;;22.23;;
33802;SDS011;20110;53.120;5.786;2022-08-19T05:39:25;57.50;;;22.15;;
33802;SDS011;20110;53.120;5.786;2022-08-19T05:41:56;46.50;;;21.80;;
33802;SDS011;20110;53.120;5.786;2022-08-19T05:44:26;48.30;;;23.75;;
33802;SDS011;20110;53.120;5.786;2022-08-19T05:47:00;46.60;;;20.85;;
33802;SDS011;20110;53.120;5.786;2022-08-19T05:49:29;56.05;;;23.17;;
33802;SDS011;20110;53.120;5.786;2022-08-19T05:51:58;49.03;;;21.83;;
33802;SDS011;20110;53.120;5.786;2022-08-19T05:54:28;55.05;;;21.70;;
33802;SDS011;20110;53.120;5.786;2022-08-19T05:56:55;47.13;;;20.95;;
33802;SDS011;20110;53.120;5.786;2022-08-19T05:59:21;51.83;;;22.15;;
33802;SDS011;20110;53.120;5.786;2022-08-19T06:01:48;45.65;;;21.52;;
33802;SDS011;20110;53.120;5.786;2022-08-19T06:04:19;56.95;;;23.63;;
33802;SDS011;20110;53.120;5.786;2022-08-19T06:06:46;42.28;;;22.58;;
33802;SDS011;20110;53.120;5.786;2022-08-19T06:09:13;46.50;;;22.55;;
33802;SDS011;20110;53.120;5.786;2022-08-19T06:11:41;50.00;;;22.08;;
33802;SDS011;20110;53.120;5.786;2022-08-19T06:14:25;40.38;;;22.17;;
33802;SDS011;20110;53.120;5.786;2022-08-19T06:16:55;40.17;;;21.08;;
33802;SDS011;20110;53.120;5.786;2022-08-19T06:19:25;43.65;;;21.02;;
33802;SDS011;20110;53.120;5.786;2022-08-19T06:21:51;41.50;;;20.67;;
33802;SDS011;20110;53.120;5.786;2022-08-19T06:24:19;39.85;;;20.90;;
33802;SDS011;20110;53.120;5.786;2022-08-19T06:26:49;42.05;;;20.52;;
33802;SDS011;20110;53.120;5.786;2022-08-19T06:29:19;39.40;;;20.38;;
33802;SDS011;20110;53.120;5.786;2022-08-19T06:31:49;38.13;;;21.20;;
33802;SDS011;20110;53.120;5.786;2022-08-19T06:34:18;38.67;;;20.83;;
33802;SDS011;20110;53.120;5.786;2022-08-19T06:36:46;39.85;;;20.35;;
33802;SDS011;20110;53.120;5.786;2022-08-19T06:39:16;37.10;;;20.00;;
33802;SDS011;20110;53.120;5.786;2022-08-19T06:41:50;31.83;;;19.85;;
33802;SDS011;20110;53.120;5.786;2022-08-19T06:44:21;32.65;;;19.35;;
33802;SDS011;20110;53.120;5.786;2022-08-19T06:46:51;37.65;;;19.13;;
33802;SDS011;20110;53.120;5.786;2022-08-19T06:49:18;37.53;;;18.70;;
33802;SDS011;20110;53.120;5.786;2022-08-19T06:51:45;38.35;;;21.27;;
33802;SDS011;20110;53.120;5.786;2022-08-19T06:54:13;29.65;;;18.88;;
33802;SDS011;20110;53.120;5.786;2022-08-19T06:56:41;30.67;;;19.35;;
33802;SDS011;20110;53.120;5.786;2022-08-19T06:59:12;37.70;;;18.90;;
33802;SDS011;20110;53.120;5.786;2022-08-19T07:01:45;32.00;;;18.45;;
33802;SDS011;20110;53.120;5.786;2022-08-19T07:04:23;31.08;;;19.52;;
33802;SDS011;20110;53.120;5.786;2022-08-19T07:06:59;29.02;;;18.65;;
33802;SDS011;20110;53.120;5.786;2022-08-19T07:09:45;34.10;;;19.05;;
33802;SDS011;20110;53.120;5.786;2022-08-19T07:12:12;29.40;;;18.95;;
33802;SDS011;20110;53.120;5.786;2022-08-19T07:14:40;31.60;;;19.05;;
33802;SDS011;20110;53.120;5.786;2022-08-19T07:17:08;27.45;;;18.42;;
33802;SDS011;20110;53.120;5.786;2022-08-19T07:19:36;33.05;;;20.23;;
33802;SDS011;20110;53.120;5.786;2022-08-19T07:22:05;31.52;;;18.60;;
33802;SDS011;20110;53.120;5.786;2022-08-19T07:24:33;30.63;;;19.45;;
33802;SDS011;20110;53.120;5.786;2022-08-19T07:27:01;37.42;;;19.90;;
33802;SDS011;20110;53.120;5.786;2022-08-19T07:29:31;31.85;;;19.05;;
33802;SDS011;20110;53.120;5.786;2022-08-19T07:32:00;33.70;;;20.10;;
33802;SDS011;20110;53.120;5.786;2022-08-19T07:34:28;38.92;;;20.00;;
33802;SDS011;20110;53.120;5.786;2022-08-19T07:36:55;36.53;;;20.00;;
33802;SDS011;20110;53.120;5.786;2022-08-19T07:39:23;33.53;;;21.08;;
33802;SDS011;20110;53.120;5.786;2022-08-19T07:42:00;32.13;;;20.65;;
33802;SDS011;20110;53.120;5.786;2022-08-19T07:44:32;34.05;;;23.02;;
33802;SDS011;20110;53.120;5.786;2022-08-19T07:46:59;36.22;;;21.58;;
33802;SDS011;20110;53.120;5.786;2022-08-19T07:49:26;34.30;;;23.00;;
33802;SDS011;20110;53.120;5.786;2022-08-19T07:51:57;31.08;;;21.17;;
33802;SDS011;20110;53.120;5.786;2022-08-19T07:54:29;34.75;;;21.83;;
33802;SDS011;20110;53.120;5.786;2022-08-19T07:56:58;39.63;;;22.77;;
33802;SDS011;20110;53.120;5.786;2022-08-19T07:59:24;39.55;;;23.70;;
33802;SDS011;20110;53.120;5.786;2022-08-19T08:01:50;40.28;;;24.70;;
33802;SDS011;20110;53.120;5.786;2022-08-19T08:04:17;44.78;;;25.17;;
33802;SDS011;20110;53.120;5.786;2022-08-19T08:07:03;40.30;;;25.23;;
33802;SDS011;20110;53.120;5.786;2022-08-19T08:09:49;44.85;;;26.38;;
33802;SDS011;20110;53.120;5.786;2022-08-19T08:12:20;42.28;;;25.77;;
33802;SDS011;20110;53.120;5.786;2022-08-19T08:14:53;50.85;;;29.08;;
33802;SDS011;20110;53.120;5.786;2022-08-19T08:17:25;42.05;;;27.15;;
33802;SDS011;20110;53.120;5.786;2022-08-19T08:19:54;40.55;;;26.98;;
33802;SDS011;20110;53.120;5.786;2022-08-19T08:22:21;47.88;;;27.77;;
33802;SDS011;20110;53.120;5.786;2022-08-19T08:25:09;40.65;;;26.75;;
33802;SDS011;20110;53.120;5.786;2022-08-19T08:27:42;42.65;;;26.42;;
33802;SDS011;20110;53.120;5.786;2022-08-19T08:30:11;37.08;;;24.00;;
33802;SDS011;20110;53.120;5.786;2022-08-19T08:32:44;40.75;;;24.67;;
33802;SDS011;20110;53.120;5.786;2022-08-19T08:35:11;38.47;;;22.83;;
33802;SDS011;20110;53.120;5.786;2022-08-19T08:37:42;38.47;;;23.33;;
33802;SDS011;20110;53.120;5.786;2022-08-19T08:40:16;38.63;;;23.40;;
33802;SDS011;20110;53.120;5.786;2022-08-19T08:45:30;38.50;;;23.15;;
33802;SDS011;20110;53.120;5.786;2022-08-19T08:48:02;39.45;;;25.52;;
33802;SDS011;20110;53.120;5.786;2022-08-19T08:50:43;31.48;;;19.85;;
33802;SDS011;20110;53.120;5.786;2022-08-19T08:53:14;34.00;;;18.55;;
33802;SDS011;20110;53.120;5.786;2022-08-19T08:55:42;28.40;;;17.95;;
33802;SDS011;20110;53.120;5.786;2022-08-19T08:58:14;31.98;;;21.05;;
33802;SDS011;20110;53.120;5.786;2022-08-19T09:01:24;27.40;;;18.65;;
33802;SDS011;20110;53.120;5.786;2022-08-19T09:03:51;31.75;;;18.42;;
33802;SDS011;20110;53.120;5.786;2022-08-19T09:07:02;26.48;;;17.42;;
33802;SDS011;20110;53.120;5.786;2022-08-19T09:09:22;23.13;;;16.17;;
33802;SDS011;20110;53.120;5.786;2022-08-19T09:15:04;24.38;;;14.98;;
33802;SDS011;20110;53.120;5.786;2022-08-19T09:17:35;22.13;;;14.65;;
33802;SDS011;20110;53.120;5.786;2022-08-19T09:20:19;27.08;;;15.65;;
33802;SDS011;20110;53.120;5.786;2022-08-19T09:22:48;28.98;;;13.93;;
33802;SDS011;20110;53.120;5.786;2022-08-19T09:25:19;25.40;;;14.25;;
33802;SDS011;20110;53.120;5.786;2022-08-19T09:27:48;23.95;;;13.73;;
33802;SDS011;20110;53.120;5.786;2022-08-19T09:30:17;25.02;;;14.48;;
33802;SDS011;20110;53.120;5.786;2022-08-19T09:32:49;24.02;;;14.15;;
33802;SDS011;20110;53.120;5.786;2022-08-19T09:35:18;24.75;;;15.05;;
33802;SDS011;20110;53.120;5.786;2022-08-19T09:37:47;26.80;;;16.13;;
33802;SDS011;20110;53.120;5.786;2022-08-19T09:40:14;30.85;;;16.05;;
33802;SDS011;20110;53.120;5.786;2022-08-19T09:42:42;25.85;;;16.38;;
33802;SDS011;20110;53.120;5.786;2022-08-19T09:45:12;28.50;;;16.55;;
33802;SDS011;20110;53.120;5.786;2022-08-19T09:47:39;27.27;;;15.77;;
33802;SDS011;20110;53.120;5.786;2022-08-19T09:50:05;21.65;;;15.32;;
33802;SDS011;20110;53.120;5.786;2022-08-19T09:52:35;30.20;;;16.30;;
33802;SDS011;20110;53.120;5.786;2022-08-19T09:55:04;28.00;;;15.48;;
33802;SDS011;20110;53.120;5.786;2022-08-19T09:57:33;23.73;;;15.27;;
33802;SDS011;20110;53.120;5.786;2022-08-19T09:59:59;28.75;;;16.42;;
33802;SDS011;20110;53.120;5.786;2022-08-19T10:02:26;34.53;;;18.23;;
33802;SDS011;20110;53.120;5.786;2022-08-19T10:04:52;21.23;;;14.68;;
33802;SDS011;20110;53.120;5.786;2022-08-19T10:07:36;27.48;;;15.43;;
33802;SDS011;20110;53.120;5.786;2022-08-19T10:10:03;29.92;;;15.52;;
33802;SDS011;20110;53.120;5.786;2022-08-19T10:12:32;23.15;;;14.93;;
33802;SDS011;20110;53.120;5.786;2022-08-19T10:14:59;23.48;;;15.07;;
33802;SDS011;20110;53.120;5.786;2022-08-19T10:17:26;29.75;;;16.08;;
33802;SDS011;20110;53.120;5.786;2022-08-19T10:19:52;24.63;;;16.40;;
33802;SDS011;20110;53.120;5.786;2022-08-19T10:22:18;26.10;;;15.43;;
33802;SDS011;20110;53.120;5.786;2022-08-19T10:24:47;33.30;;;15.65;;
33802;SDS011;20110;53.120;5.786;2022-08-19T10:27:14;24.00;;;14.10;;
33802;SDS011;20110;53.120;5.786;2022-08-19T10:29:40;19.85;;;11.65;;
33802;SDS011;20110;53.120;5.786;2022-08-19T10:32:07;19.95;;;11.57;;
33802;SDS011;20110;53.120;5.786;2022-08-19T10:34:34;19.95;;;12.73;;
33802;SDS011;20110;53.120;5.786;2022-08-19T10:37:02;16.38;;;12.18;;
33802;SDS011;20110;53.120;5.786;2022-08-19T10:39:35;16.17;;;10.95;;
33802;SDS011;20110;53.120;5.786;2022-08-19T10:42:05;19.90;;;12.65;;
33802;SDS011;20110;53.120;5.786;2022-08-19T10:44:32;24.50;;;14.07;;
33802;SDS011;20110;53.120;5.786;2022-08-19T10:47:00;23.27;;;13.32;;
33802;SDS011;20110;53.120;5.786;2022-08-19T10:49:27;19.88;;;12.93;;
33802;SDS011;20110;53.120;5.786;2022-08-19T10:51:53;25.52;;;13.50;;
33802;SDS011;20110;53.120;5.786;2022-08-19T10:54:38;21.13;;;13.50;;
33802;SDS011;20110;53.120;5.786;2022-08-19T10:57:22;23.40;;;13.93;;
33802;SDS011;20110;53.120;5.786;2022-08-19T10:59:54;25.85;;;14.07;;
33802;SDS011;20110;53.120;5.786;2022-08-19T11:02:22;21.63;;;12.98;;
33802;SDS011;20110;53.120;5.786;2022-08-19T11:04:48;18.75;;;12.55;;
33802;SDS011;20110;53.120;5.786;2022-08-19T11:07:15;17.52;;;12.23;;
33802;SDS011;20110;53.120;5.786;2022-08-19T11:09:41;25.60;;;13.25;;
33802;SDS011;20110;53.120;5.786;2022-08-19T11:12:08;21.75;;;13.90;;
33802;SDS011;20110;53.120;5.786;2022-08-19T11:14:35;24.63;;;15.52;;
33802;SDS011;20110;53.120;5.786;2022-08-19T11:17:03;23.70;;;14.98;;
33802;SDS011;20110;53.120;5.786;2022-08-19T11:19:31;18.02;;;13.68;;
33802;SDS011;20110;53.120;5.786;2022-08-19T11:21:58;19.98;;;14.20;;
33802;SDS011;20110;53.120;5.786;2022-08-19T11:24:26;20.80;;;13.52;;
33802;SDS011;20110;53.120;5.786;2022-08-19T11:26:54;18.65;;;12.68;;
33802;SDS011;20110;53.120;5.786;2022-08-19T11:29:30;23.35;;;12.88;;
33802;SDS011;20110;53.120;5.786;2022-08-19T11:31:57;18.83;;;10.80;;
33802;SDS011;20110;53.120;5.786;2022-08-19T11:34:23;24.55;;;11.18;;
33802;SDS011;20110;53.120;5.786;2022-08-19T11:36:52;12.50;;;9.13;;
33802;SDS011;20110;53.120;5.786;2022-08-19T11:39:22;20.85;;;10.30;;
33802;SDS011;20110;53.120;5.786;2022-08-19T11:41:50;20.35;;;10.75;;
33802;SDS011;20110;53.120;5.786;2022-08-19T11:44:17;18.92;;;11.45;;
33802;SDS011;20110;53.120;5.786;2022-08-19T11:46:43;21.08;;;13.20;;
33802;SDS011;20110;53.120;5.786;2022-08-19T11:49:11;17.80;;;10.38;;
33802;SDS011;20110;53.120;5.786;2022-08-19T11:51:44;18.58;;;10.70;;
33802;SDS011;20110;53.120;5.786;2022-08-19T11:54:13;22.55;;;12.02;;
33802;SDS011;20110;53.120;5.786;2022-08-19T11:56:41;15.27;;;8.85;;
33802;SDS011;20110;53.120;5.786;2022-08-19T11:59:09;10.70;;;8.00;;
33802;SDS011;20110;53.120;5.786;2022-08-19T12:01:35;13.50;;;8.68;;
33802;SDS011;20110;53.120;5.786;2022-08-19T12:04:01;11.80;;;8.68;;
33802;SDS011;20110;53.120;5.786;2022-08-19T12:06:30;16.65;;;11.52;;
33802;SDS011;20110;53.120;5.786;2022-08-19T12:09:03;18.27;;;10.70;;
33802;SDS011;20110;53.120;5.786;2022-08-19T12:11:36;16.48;;;10.95;;
33802;SDS011;20110;53.120;5.786;2022-08-19T12:14:04;21.58;;;12.10;;
33802;SDS011;20110;53.120;5.786;2022-08-19T12:16:31;19.38;;;10.93;;
33802;SDS011;20110;53.120;5.786;2022-08-19T12:18:58;18.02;;;11.10;;
33802;SDS011;20110;53.120;5.786;2022-08-19T12:21:29;12.95;;;10.55;;
33802;SDS011;20110;53.120;5.786;2022-08-19T12:23:57;18.13;;;11.35;;
33802;SDS011;20110;53.120;5.786;2022-08-19T12:26:26;14.13;;;9.95;;
33802;SDS011;20110;53.120;5.786;2022-08-19T12:28:53;14.45;;;10.40;;
33802;SDS011;20110;53.120;5.786;2022-08-19T12:31:20;21.13;;;10.80;;
33802;SDS011;20110;53.120;5.786;2022-08-19T12:33:46;12.15;;;9.85;;
33802;SDS011;20110;53.120;5.786;2022-08-19T12:36:13;17.02;;;9.55;;
33802;SDS011;20110;53.120;5.786;2022-08-19T12:38:42;19.13;;;10.90;;
33802;SDS011;20110;53.120;5.786;2022-08-19T12:41:10;25.10;;;11.52;;
33802;SDS011;20110;53.120;5.786;2022-08-19T12:43:40;18.95;;;10.50;;
33802;SDS011;20110;53.120;5.786;2022-08-19T12:46:07;18.35;;;10.25;;
33802;SDS011;20110;53.120;5.786;2022-08-19T12:48:35;17.90;;;10.10;;
33802;SDS011;20110;53.120;5.786;2022-08-19T12:51:15;18.55;;;10.20;;
33802;SDS011;20110;53.120;5.786;2022-08-19T12:53:45;14.07;;;10.98;;
33802;SDS011;20110;53.120;5.786;2022-08-19T12:56:12;16.50;;;10.63;;
33802;SDS011;20110;53.120;5.786;2022-08-19T12:58:40;19.80;;;10.98;;
33802;SDS011;20110;53.120;5.786;2022-08-19T13:01:11;12.57;;;10.32;;
33802;SDS011;20110;53.120;5.786;2022-08-19T13:03:39;15.90;;;10.50;;
33802;SDS011;20110;53.120;5.786;2022-08-19T13:06:12;18.05;;;11.18;;
33802;SDS011;20110;53.120;5.786;2022-08-19T13:08:41;18.30;;;11.80;;
33802;SDS011;20110;53.120;5.786;2022-08-19T13:11:14;18.23;;;11.57;;
33802;SDS011;20110;53.120;5.786;2022-08-19T13:13:45;15.88;;;10.68;;
33802;SDS011;20110;53.120;5.786;2022-08-19T13:16:15;20.45;;;11.52;;
33802;SDS011;20110;53.120;5.786;2022-08-19T13:18:43;18.45;;;12.05;;
33802;SDS011;20110;53.120;5.786;2022-08-19T13:21:18;17.33;;;12.27;;
33802;SDS011;20110;53.120;5.786;2022-08-19T13:23:46;16.52;;;11.82;;
33802;SDS011;20110;53.120;5.786;2022-08-19T13:26:13;21.02;;;12.50;;
33802;SDS011;20110;53.120;5.786;2022-08-19T13:28:41;17.38;;;12.48;;
33802;SDS011;20110;53.120;5.786;2022-08-19T13:31:39;24.60;;;13.57;;
33802;SDS011;20110;53.120;5.786;2022-08-19T13:34:35;17.13;;;10.75;;
33802;SDS011;20110;53.120;5.786;2022-08-19T13:37:03;15.27;;;11.40;;
33802;SDS011;20110;53.120;5.786;2022-08-19T13:39:31;16.75;;;12.65;;
33802;SDS011;20110;53.120;5.786;2022-08-19T13:42:00;24.02;;;12.15;;
33802;SDS011;20110;53.120;5.786;2022-08-19T13:44:29;21.80;;;12.07;;
33802;SDS011;20110;53.120;5.786;2022-08-19T13:46:55;15.75;;;10.38;;
33802;SDS011;20110;53.120;5.786;2022-08-19T13:49:31;23.55;;;10.23;;
33802;SDS011;20110;53.120;5.786;2022-08-19T13:51:58;18.85;;;13.82;;
33802;SDS011;20110;53.120;5.786;2022-08-19T13:54:25;19.23;;;13.88;;
33802;SDS011;20110;53.120;5.786;2022-08-19T13:56:52;20.42;;;13.93;;
33802;SDS011;20110;53.120;5.786;2022-08-19T13:59:19;21.17;;;13.73;;
33802;SDS011;20110;53.120;5.786;2022-08-19T14:01:46;22.38;;;13.40;;
33802;SDS011;20110;53.120;5.786;2022-08-19T14:04:12;18.48;;;12.75;;
33802;SDS011;20110;53.120;5.786;2022-08-19T14:06:38;25.23;;;11.80;;
33802;SDS011;20110;53.120;5.786;2022-08-19T14:09:07;22.63;;;12.45;;
33802;SDS011;20110;53.120;5.786;2022-08-19T14:11:34;17.52;;;12.32;;
33802;SDS011;20110;53.120;5.786;2022-08-19T14:14:03;22.77;;;12.40;;
33802;SDS011;20110;53.120;5.786;2022-08-19T14:16:28;19.55;;;12.60;;
33802;SDS011;20110;53.120;5.786;2022-08-19T14:18:56;15.73;;;9.38;;
33802;SDS011;20110;53.120;5.786;2022-08-19T14:21:22;10.23;;;8.15;;
33802;SDS011;20110;53.120;5.786;2022-08-19T14:23:50;11.40;;;8.25;;
33802;SDS011;20110;53.120;5.786;2022-08-19T14:26:18;8.48;;;6.55;;
33802;SDS011;20110;53.120;5.786;2022-08-19T14:28:46;8.57;;;6.75;;
33802;SDS011;20110;53.120;5.786;2022-08-19T14:31:13;7.88;;;4.60;;
33802;SDS011;20110;53.120;5.786;2022-08-19T14:33:44;4.57;;;3.97;;
33802;SDS011;20110;53.120;5.786;2022-08-19T14:36:13;7.75;;;4.53;;
33802;SDS011;20110;53.120;5.786;2022-08-19T14:38:39;6.30;;;5.70;;
33802;SDS011;20110;53.120;5.786;2022-08-19T14:41:16;6.78;;;5.00;;
33802;SDS011;20110;53.120;5.786;2022-08-19T14:43:47;6.03;;;3.90;;
33802;SDS011;20110;53.120;5.786;2022-08-19T14:46:17;4.70;;;3.90;;
33802;SDS011;20110;53.120;5.786;2022-08-19T14:48:52;6.22;;;4.47;;